sensor_id;sensor_type;location;lat;lon;timestamp;pressure;altitude;pressure_sealevel;temperature;humidity
71476;BME280;59286;59.274;17.974;2023-01-30T00:59:01;97764.78;;;5.17;86.40
71476;BME280;59286;59.274;17.974;2023-01-30T01:01:26;97781.41;;;5.28;86.57
71476;BME280;59286;59.274;17.974;2023-01-30T01:03:51;97768.56;;;5.20;86.49
71476;BME280;59286;59.274;17.974;2023-01-30T01:06:17;97748.56;;;5.08;86.87
71476;BME280;59286;59.274;17.974;2023-01-30T01:08:42;97771.66;;;5.37;87.41
71476;BME280;59286;59.274;17.974;2023-01-30T01:11:08;97745.44;;;5.03;87.18
71476;BME280;59286;59.274;17.974;2023-01-30T01:13:34;97755.59;;;5.20;87.40
71476;BME280;59286;59.274;17.974;2023-01-30T01:15:59;97697.69;;;4.79;87.29
71476;BME280;59286;59.274;17.974;2023-01-30T01:18:24;97702.09;;;4.91;87.46
71476;BME280;59286;59.274;17.974;2023-01-30T01:20:50;97697.56;;;4.88;87.52
71476;BME280;59286;59.274;17.974;2023-01-30T01:23:16;97693.25;;;4.92;87.58
71476;BME280;59286;59.274;17.974;2023-01-30T01:25:41;97711.59;;;4.99;87.45
71476;BME280;59286;59.274;17.974;2023-01-30T01:28:08;97716.31;;;5.09;87.72
71476;BME280;59286;59.274;17.974;2023-01-30T01:30:33;97663.22;;;4.79;87.69
71476;BME280;59286;59.274;17.974;2023-01-30T01:32:58;97706.63;;;5.06;87.67
71476;BME280;59286;59.274;17.974;2023-01-30T01:35:24;97694.84;;;4.97;87.76
71476;BME280;59286;59.274;17.974;2023-01-30T01:37:53;97735.88;;;5.19;87.78
71476;BME280;59286;59.274;17.974;2023-01-30T01:40:20;97701.13;;;4.96;87.74
71476;BME280;59286;59.274;17.974;2023-01-30T01:43:23;97689.56;;;4.93;87.80
71476;BME280;59286;59.274;17.974;2023-01-30T01:45:58;97703.34;;;5.09;87.91
71476;BME280;59286;59.274;17.974;2023-01-30T01:48:36;97673.34;;;4.84;87.91
71476;BME280;59286;59.274;17.974;2023-01-30T01:51:08;97673.88;;;4.89;88.24
71476;BME280;59286;59.274;17.974;2023-01-30T01:53:38;97693.44;;;4.99;87.93
71476;BME280;59286;59.274;17.974;2023-01-30T01:56:07;97651.19;;;4.86;88.00
71476;BME280;59286;59.274;17.974;2023-01-30T01:58:41;97645.84;;;4.67;87.99
71476;BME280;59286;59.274;17.974;2023-01-30T02:01:07;97675.50;;;4.94;88.29
71476;BME280;59286;59.274;17.974;2023-01-30T02:03:36;97679.38;;;5.00;89.02
71476;BME280;59286;59.274;17.974;2023-01-30T02:06:04;97659.50;;;4.92;89.48
71476;BME280;59286;59.274;17.974;2023-01-30T02:08:31;97705.75;;;5.14;89.68
71476;BME280;59286;59.274;17.974;2023-01-30T02:13:38;97609.88;;;4.54;90.47
71476;BME280;59286;59.274;17.974;2023-01-30T02:16:06;97671.69;;;5.04;90.53
71476;BME280;59286;59.274;17.974;2023-01-30T02:18:34;97662.72;;;5.01;90.53
71476;BME280;59286;59.274;17.974;2023-01-30T02:21:16;97662.28;;;4.99;90.74
71476;BME280;59286;59.274;17.974;2023-01-30T02:29:29;97635.47;;;4.67;91.14
71476;BME280;59286;59.274;17.974;2023-01-30T02:32:18;97618.38;;;4.66;91.13
71476;BME280;59286;59.274;17.974;2023-01-30T02:37:46;97622.34;;;4.76;90.97
71476;BME280;59286;59.274;17.974;2023-01-30T02:40:40;97639.38;;;4.89;90.64
71476;BME280;59286;59.274;17.974;2023-01-30T02:43:45;97633.13;;;4.90;90.47
71476;BME280;59286;59.274;17.974;2023-01-30T02:46:32;97632.38;;;4.89;90.41
71476;BME280;59286;59.274;17.974;2023-01-30T02:49:08;97590.16;;;4.65;90.03
71476;BME280;59286;59.274;17.974;2023-01-30T02:51:38;97619.09;;;4.79;89.90
71476;BME280;59286;59.274;17.974;2023-01-30T02:54:10;97543.56;;;4.41;89.73
71476;BME280;59286;59.274;17.974;2023-01-30T02:56:49;97602.22;;;4.85;89.64
71476;BME280;59286;59.274;17.974;2023-01-30T02:59:25;97580.41;;;4.74;89.24
71476;BME280;59286;59.274;17.974;2023-01-30T03:04:33;97585.00;;;4.92;88.89
71476;BME280;59286;59.274;17.974;2023-01-30T03:07:26;97593.19;;;4.94;88.29
71476;BME280;59286;59.274;17.974;2023-01-30T03:10:01;97590.59;;;4.94;88.22
71476;BME280;59286;59.274;17.974;2023-01-30T03:12:41;97565.69;;;4.78;88.14
71476;BME280;59286;59.274;17.974;2023-01-30T03:15:20;97559.81;;;4.65;88.31
71476;BME280;59286;59.274;17.974;2023-01-30T03:17:48;97521.13;;;4.60;87.36
71476;BME280;59286;59.274;17.974;2023-01-30T03:20:15;97572.06;;;4.80;87.60
71476;BME280;59286;59.274;17.974;2023-01-30T03:22:43;97535.53;;;4.46;87.90
71476;BME280;59286;59.274;17.974;2023-01-30T03:25:10;97504.91;;;4.24;87.85
71476;BME280;59286;59.274;17.974;2023-01-30T03:27:38;97550.69;;;4.44;87.95
71476;BME280;59286;59.274;17.974;2023-01-30T03:30:04;97515.06;;;4.29;87.63
71476;BME280;59286;59.274;17.974;2023-01-30T03:32:30;97548.63;;;4.49;87.08
71476;BME280;59286;59.274;17.974;2023-01-30T03:34:55;97553.56;;;4.54;86.71
71476;BME280;59286;59.274;17.974;2023-01-30T03:37:21;97533.66;;;4.31;86.16
71476;BME280;59286;59.274;17.974;2023-01-30T03:39:46;97537.50;;;4.37;85.93
71476;BME280;59286;59.274;17.974;2023-01-30T03:42:12;97517.53;;;4.25;86.07
71476;BME280;59286;59.274;17.974;2023-01-30T03:44:39;97557.81;;;4.35;85.63
71476;BME280;59286;59.274;17.974;2023-01-30T03:47:05;97536.25;;;4.19;85.68
71476;BME280;59286;59.274;17.974;2023-01-30T03:49:30;97508.97;;;3.97;85.44
71476;BME280;59286;59.274;17.974;2023-01-30T03:51:56;97507.34;;;3.92;85.41
71476;BME280;59286;59.274;17.974;2023-01-30T03:54:21;97501.97;;;3.85;85.67
71476;BME280;59286;59.274;17.974;2023-01-30T03:56:46;97560.78;;;4.21;85.36
71476;BME280;59286;59.274;17.974;2023-01-30T03:59:12;97482.88;;;3.66;85.16
71476;BME280;59286;59.274;17.974;2023-01-30T04:01:37;97492.16;;;3.67;84.80
71476;BME280;59286;59.274;17.974;2023-01-30T04:04:03;97483.94;;;3.53;84.84
71476;BME280;59286;59.274;17.974;2023-01-30T04:06:28;97478.78;;;3.53;84.47
71476;BME280;59286;59.274;17.974;2023-01-30T04:08:53;97525.38;;;3.77;83.91
71476;BME280;59286;59.274;17.974;2023-01-30T04:11:20;97461.66;;;3.48;83.39
71476;BME280;59286;59.274;17.974;2023-01-30T04:13:45;97478.66;;;3.49;83.29
71476;BME280;59286;59.274;17.974;2023-01-30T04:16:21;97502.41;;;3.63;82.87
71476;BME280;59286;59.274;17.974;2023-01-30T04:18:47;97481.06;;;3.42;82.45
71476;BME280;59286;59.274;17.974;2023-01-30T04:21:12;97526.56;;;3.67;82.56
71476;BME280;59286;59.274;17.974;2023-01-30T04:23:38;97464.09;;;3.33;81.97
71476;BME280;59286;59.274;17.974;2023-01-30T04:26:04;97446.66;;;3.30;81.81
71476;BME280;59286;59.274;17.974;2023-01-30T04:28:30;97467.25;;;3.26;81.84
71476;BME280;59286;59.274;17.974;2023-01-30T04:30:55;97498.06;;;3.43;81.82
71476;BME280;59286;59.274;17.974;2023-01-30T04:33:21;97505.63;;;3.36;81.77
71476;BME280;59286;59.274;17.974;2023-01-30T04:35:59;97493.13;;;3.26;82.08
71476;BME280;59286;59.274;17.974;2023-01-30T04:38:26;97490.00;;;3.21;81.72
71476;BME280;59286;59.274;17.974;2023-01-30T04:40:54;97484.28;;;3.15;81.30
71476;BME280;59286;59.274;17.974;2023-01-30T04:43:21;97482.75;;;3.14;80.94
71476;BME280;59286;59.274;17.974;2023-01-30T04:45:48;97462.34;;;3.01;80.94
71476;BME280;59286;59.274;17.974;2023-01-30T04:48:14;97533.47;;;3.51;79.88
71476;BME280;59286;59.274;17.974;2023-01-30T04:50:41;97463.88;;;3.02;79.80
71476;BME280;59286;59.274;17.974;2023-01-30T04:53:07;97495.03;;;3.17;79.61
71476;BME280;59286;59.274;17.974;2023-01-30T04:55:33;97436.16;;;2.90;78.68
71476;BME280;59286;59.274;17.974;2023-01-30T04:57:58;97467.88;;;3.11;78.34
71476;BME280;59286;59.274;17.974;2023-01-30T05:00:24;97433.56;;;2.90;77.78
71476;BME280;59286;59.274;17.974;2023-01-30T05:02:50;97469.91;;;3.06;78.10
71476;BME280;59286;59.274;17.974;2023-01-30T05:05:21;97476.59;;;3.07;77.69
71476;BME280;59286;59.274;17.974;2023-01-30T05:07:47;97500.66;;;3.19;78.24
71476;BME280;59286;59.274;17.974;2023-01-30T05:10:13;97509.59;;;3.22;78.04
71476;BME280;59286;59.274;17.974;2023-01-30T05:12:39;97464.81;;;2.85;77.61
71476;BME280;59286;59.274;17.974;2023-01-30T05:15:04;97457.69;;;2.82;77.26
71476;BME280;59286;59.274;17.974;2023-01-30T05:17:31;97456.63;;;2.83;77.31
71476;BME280;59286;59.274;17.974;2023-01-30T05:19:56;97454.97;;;2.78;77.62
71476;BME280;59286;59.274;17.974;2023-01-30T05:22:22;97466.97;;;2.95;77.42
71476;BME280;59286;59.274;17.974;2023-01-30T05:24:47;97466.09;;;2.79;76.81
71476;BME280;59286;59.274;17.974;2023-01-30T05:27:13;97450.13;;;2.77;76.67
71476;BME280;59286;59.274;17.974;2023-01-30T05:29:38;97434.28;;;2.66;76.43
71476;BME280;59286;59.274;17.974;2023-01-30T05:32:03;97466.75;;;2.88;76.33
71476;BME280;59286;59.274;17.974;2023-01-30T05:34:29;97411.41;;;2.56;75.58
71476;BME280;59286;59.274;17.974;2023-01-30T05:36:54;97437.84;;;2.74;75.58
71476;BME280;59286;59.274;17.974;2023-01-30T05:39:20;97431.56;;;2.63;75.78
71476;BME280;59286;59.274;17.974;2023-01-30T05:41:45;97419.72;;;2.62;75.47
71476;BME280;59286;59.274;17.974;2023-01-30T05:44:10;97442.31;;;2.65;75.31
71476;BME280;59286;59.274;17.974;2023-01-30T05:46:36;97431.56;;;2.63;75.49
71476;BME280;59286;59.274;17.974;2023-01-30T05:49:01;97416.22;;;2.46;75.12
71476;BME280;59286;59.274;17.974;2023-01-30T05:51:28;97509.22;;;2.87;74.73
71476;BME280;59286;59.274;17.974;2023-01-30T05:53:54;97451.38;;;2.59;74.52
71476;BME280;59286;59.274;17.974;2023-01-30T05:56:20;97416.50;;;2.32;74.54
71476;BME280;59286;59.274;17.974;2023-01-30T05:58:53;97441.53;;;2.52;74.33
71476;BME280;59286;59.274;17.974;2023-01-30T06:01:19;97436.78;;;2.42;74.83
71476;BME280;59286;59.274;17.974;2023-01-30T06:03:45;97452.84;;;2.48;74.01
71476;BME280;59286;59.274;17.974;2023-01-30T06:06:11;97457.94;;;2.56;74.00
71476;BME280;59286;59.274;17.974;2023-01-30T06:08:37;97469.50;;;2.38;73.74
71476;BME280;59286;59.274;17.974;2023-01-30T06:11:08;97470.63;;;2.49;73.56
71476;BME280;59286;59.274;17.974;2023-01-30T06:13:34;97453.78;;;2.43;74.05
71476;BME280;59286;59.274;17.974;2023-01-30T06:15:59;97452.16;;;2.39;74.31
71476;BME280;59286;59.274;17.974;2023-01-30T06:18:25;97437.25;;;2.24;72.96
71476;BME280;59286;59.274;17.974;2023-01-30T06:20:51;97505.59;;;2.67;73.54
71476;BME280;59286;59.274;17.974;2023-01-30T06:23:24;97445.41;;;2.26;72.95
71476;BME280;59286;59.274;17.974;2023-01-30T06:25:55;97450.59;;;2.26;73.97
71476;BME280;59286;59.274;17.974;2023-01-30T06:28:21;97507.28;;;2.63;72.94
71476;BME280;59286;59.274;17.974;2023-01-30T06:30:47;97495.38;;;2.50;73.57
71476;BME280;59286;59.274;17.974;2023-01-30T06:33:13;97507.16;;;2.60;73.32
71476;BME280;59286;59.274;17.974;2023-01-30T06:35:40;97501.31;;;2.51;73.67
71476;BME280;59286;59.274;17.974;2023-01-30T06:38:06;97494.22;;;2.48;73.60
71476;BME280;59286;59.274;17.974;2023-01-30T06:40:36;97500.13;;;2.48;73.57
71476;BME280;59286;59.274;17.974;2023-01-30T06:43:02;97499.38;;;2.48;73.56
71476;BME280;59286;59.274;17.974;2023-01-30T06:45:27;97512.00;;;2.61;73.40
71476;BME280;59286;59.274;17.974;2023-01-30T06:47:53;97520.09;;;2.60;73.45
71476;BME280;59286;59.274;17.974;2023-01-30T06:50:21;97508.88;;;2.56;73.30
71476;BME280;59286;59.274;17.974;2023-01-30T06:52:48;97522.31;;;2.70;73.08
71476;BME280;59286;59.274;17.974;2023-01-30T06:55:16;97458.59;;;2.33;73.82
71476;BME280;59286;59.274;17.974;2023-01-30T06:57:42;97500.19;;;2.60;73.54
71476;BME280;59286;59.274;17.974;2023-01-30T07:00:11;97506.03;;;2.69;73.31
71476;BME280;59286;59.274;17.974;2023-01-30T07:02:36;97505.25;;;2.69;73.65
71476;BME280;59286;59.274;17.974;2023-01-30T07:05:03;97529.91;;;2.87;74.61
71476;BME280;59286;59.274;17.974;2023-01-30T07:07:29;97542.63;;;2.92;74.29
71476;BME280;59286;59.274;17.974;2023-01-30T07:09:56;97529.25;;;2.90;73.96
71476;BME280;59286;59.274;17.974;2023-01-30T07:12:22;97461.84;;;2.62;73.49
71476;BME280;59286;59.274;17.974;2023-01-30T07:14:48;97512.91;;;2.98;73.22
71476;BME280;59286;59.274;17.974;2023-01-30T07:17:14;97498.53;;;2.88;73.39
71476;BME280;59286;59.274;17.974;2023-01-30T07:19:40;97514.84;;;3.01;73.13
71476;BME280;59286;59.274;17.974;2023-01-30T07:22:06;97477.81;;;2.76;72.84
71476;BME280;59286;59.274;17.974;2023-01-30T07:24:31;97509.66;;;3.01;72.71
71476;BME280;59286;59.274;17.974;2023-01-30T07:26:56;97511.06;;;2.98;73.15
71476;BME280;59286;59.274;17.974;2023-01-30T07:29:21;97506.53;;;2.95;72.96
71476;BME280;59286;59.274;17.974;2023-01-30T07:31:47;97491.66;;;2.92;72.50
71476;BME280;59286;59.274;17.974;2023-01-30T07:34:12;97516.47;;;3.06;72.28
71476;BME280;59286;59.274;17.974;2023-01-30T07:36:37;97525.41;;;3.08;72.79
71476;BME280;59286;59.274;17.974;2023-01-30T07:39:03;97475.66;;;2.78;72.63
71476;BME280;59286;59.274;17.974;2023-01-30T07:41:29;97514.84;;;3.01;73.14
71476;BME280;59286;59.274;17.974;2023-01-30T07:43:54;97521.72;;;2.97;73.31
71476;BME280;59286;59.274;17.974;2023-01-30T07:46:19;97501.72;;;2.73;73.46
71476;BME280;59286;59.274;17.974;2023-01-30T07:48:45;97505.69;;;2.71;72.75
71476;BME280;59286;59.274;17.974;2023-01-30T07:51:10;97512.19;;;2.77;73.60
71476;BME280;59286;59.274;17.974;2023-01-30T07:53:36;97505.78;;;2.62;73.51
71476;BME280;59286;59.274;17.974;2023-01-30T07:56:09;97498.34;;;2.61;73.57
71476;BME280;59286;59.274;17.974;2023-01-30T07:58:35;97510.31;;;2.65;73.35
71476;BME280;59286;59.274;17.974;2023-01-30T08:01:00;97496.31;;;2.66;73.76
71476;BME280;59286;59.274;17.974;2023-01-30T08:03:26;97471.56;;;2.45;73.84
71476;BME280;59286;59.274;17.974;2023-01-30T08:05:51;97510.03;;;2.79;73.38
71476;BME280;59286;59.274;17.974;2023-01-30T08:08:18;97498.09;;;2.86;73.08
71476;BME280;59286;59.274;17.974;2023-01-30T08:10:44;97516.66;;;3.01;73.25
71476;BME280;59286;59.274;17.974;2023-01-30T08:13:09;97481.44;;;2.96;73.10
71476;BME280;59286;59.274;17.974;2023-01-30T08:15:35;97483.13;;;2.92;73.25
71476;BME280;59286;59.274;17.974;2023-01-30T08:18:00;97515.72;;;3.17;72.83
71476;BME280;59286;59.274;17.974;2023-01-30T08:20:26;97521.16;;;3.24;72.00
71476;BME280;59286;59.274;17.974;2023-01-30T08:22:52;97484.38;;;3.19;71.13
71476;BME280;59286;59.274;17.974;2023-01-30T08:25:18;97499.25;;;3.22;71.40
71476;BME280;59286;59.274;17.974;2023-01-30T08:27:44;97507.03;;;3.34;71.24
71476;BME280;59286;59.274;17.974;2023-01-30T08:30:10;97459.03;;;3.12;71.65
71476;BME280;59286;59.274;17.974;2023-01-30T08:32:36;97483.84;;;3.25;71.18
71476;BME280;59286;59.274;17.974;2023-01-30T08:35:01;97516.34;;;3.47;71.16
71476;BME280;59286;59.274;17.974;2023-01-30T08:37:27;97500.88;;;3.38;71.49
71476;BME280;59286;59.274;17.974;2023-01-30T08:39:52;97495.72;;;3.38;70.42
71476;BME280;59286;59.274;17.974;2023-01-30T08:42:17;97526.03;;;3.62;70.96
71476;BME280;59286;59.274;17.974;2023-01-30T08:44:43;97509.13;;;3.52;70.34
71476;BME280;59286;59.274;17.974;2023-01-30T08:47:08;97497.88;;;3.48;70.66
71476;BME280;59286;59.274;17.974;2023-01-30T08:49:34;97521.53;;;3.71;70.16
71476;BME280;59286;59.274;17.974;2023-01-30T08:51:59;97500.25;;;3.53;70.07
71476;BME280;59286;59.274;17.974;2023-01-30T08:54:24;97508.66;;;3.62;69.60
71476;BME280;59286;59.274;17.974;2023-01-30T08:56:50;97495.84;;;3.54;69.64
71476;BME280;59286;59.274;17.974;2023-01-30T08:59:15;97526.81;;;3.74;69.89
71476;BME280;59286;59.274;17.974;2023-01-30T09:01:40;97496.16;;;3.64;70.21
71476;BME280;59286;59.274;17.974;2023-01-30T09:04:05;97511.91;;;3.83;69.43
71476;BME280;59286;59.274;17.974;2023-01-30T09:06:31;97506.63;;;3.80;69.28
71476;BME280;59286;59.274;17.974;2023-01-30T09:08:58;97516.97;;;3.80;70.19
71476;BME280;59286;59.274;17.974;2023-01-30T09:11:23;97510.84;;;3.72;69.47
71476;BME280;59286;59.274;17.974;2023-01-30T09:13:48;97498.50;;;3.69;69.48
71476;BME280;59286;59.274;17.974;2023-01-30T09:16:14;97495.50;;;3.67;69.78
71476;BME280;59286;59.274;17.974;2023-01-30T09:18:41;97503.25;;;3.79;70.13
71476;BME280;59286;59.274;17.974;2023-01-30T09:21:11;97491.06;;;3.68;68.74
71476;BME280;59286;59.274;17.974;2023-01-30T09:23:37;97506.63;;;3.80;69.28
71476;BME280;59286;59.274;17.974;2023-01-30T09:26:03;97504.56;;;3.73;69.60
71476;BME280;59286;59.274;17.974;2023-01-30T09:28:29;97494.00;;;3.66;69.07
71476;BME280;59286;59.274;17.974;2023-01-30T09:30:56;97501.13;;;3.57;69.94
71476;BME280;59286;59.274;17.974;2023-01-30T09:33:22;97507.91;;;3.62;69.38
71476;BME280;59286;59.274;17.974;2023-01-30T09:35:48;97516.88;;;3.64;69.27
71476;BME280;59286;59.274;17.974;2023-01-30T09:38:14;97500.91;;;3.50;69.31
71476;BME280;59286;59.274;17.974;2023-01-30T09:41:11;97490.31;;;3.43;69.41
71476;BME280;59286;59.274;17.974;2023-01-30T09:46:57;97504.25;;;3.39;70.48
71476;BME280;59286;59.274;17.974;2023-01-30T09:49:47;97503.47;;;3.38;70.01
71476;BME280;59286;59.274;17.974;2023-01-30T09:52:27;97502.59;;;3.34;69.76
71476;BME280;59286;59.274;17.974;2023-01-30T09:55:17;97494.19;;;3.25;70.26
71476;BME280;59286;59.274;17.974;2023-01-30T09:57:45;97499.16;;;3.30;70.12
71476;BME280;59286;59.274;17.974;2023-01-30T10:02:54;97488.78;;;3.18;70.36
71476;BME280;59286;59.274;17.974;2023-01-30T10:05:32;97475.63;;;3.11;70.46
71476;BME280;59286;59.274;17.974;2023-01-30T10:08:10;97479.72;;;3.12;70.20
71476;BME280;59286;59.274;17.974;2023-01-30T10:11:04;97481.13;;;3.10;70.61
71476;BME280;59286;59.274;17.974;2023-01-30T10:13:46;97488.13;;;3.21;69.99
71476;BME280;59286;59.274;17.974;2023-01-30T10:16:16;97485.16;;;3.31;71.10
71476;BME280;59286;59.274;17.974;2023-01-30T10:21:30;97473.81;;;3.48;69.68
71476;BME280;59286;59.274;17.974;2023-01-30T10:26:55;97439.41;;;3.47;68.79
71476;BME280;59286;59.274;17.974;2023-01-30T10:32:21;97441.13;;;3.55;67.50
71476;BME280;59286;59.274;17.974;2023-01-30T10:34:52;97476.69;;;3.82;68.06
71476;BME280;59286;59.274;17.974;2023-01-30T10:40:06;97453.38;;;3.82;66.56
71476;BME280;59286;59.274;17.974;2023-01-30T10:51:01;97479.59;;;4.05;66.37
71476;BME280;59286;59.274;17.974;2023-01-30T10:53:53;97473.97;;;4.03;66.14
71476;BME280;59286;59.274;17.974;2023-01-30T10:56:52;97469.03;;;3.98;65.98
71476;BME280;59286;59.274;17.974;2023-01-30T10:59:22;97479.06;;;4.00;66.46
71476;BME280;59286;59.274;17.974;2023-01-30T11:02:05;97471.94;;;3.97;66.74
71476;BME280;59286;59.274;17.974;2023-01-30T11:04:54;97450.34;;;3.92;66.50
71476;BME280;59286;59.274;17.974;2023-01-30T11:07:21;97442.50;;;3.77;67.23
71476;BME280;59286;59.274;17.974;2023-01-30T11:09:47;97462.97;;;3.94;66.96
71476;BME280;59286;59.274;17.974;2023-01-30T11:12:13;97460.63;;;3.89;66.33
71476;BME280;59286;59.274;17.974;2023-01-30T11:14:52;97468.25;;;3.97;66.51
71476;BME280;59286;59.274;17.974;2023-01-30T11:17:20;97471.84;;;3.93;66.98
71476;BME280;59286;59.274;17.974;2023-01-30T11:19:53;97481.44;;;4.05;66.84
71476;BME280;59286;59.274;17.974;2023-01-30T11:22:22;97484.88;;;4.09;66.80
71476;BME280;59286;59.274;17.974;2023-01-30T11:25:03;97443.16;;;3.86;66.15
71476;BME280;59286;59.274;17.974;2023-01-30T11:27:32;97488.31;;;4.13;67.13
71476;BME280;59286;59.274;17.974;2023-01-30T11:30:18;97471.25;;;4.12;66.34
71476;BME280;59286;59.274;17.974;2023-01-30T11:32:46;97481.25;;;4.25;66.16
71476;BME280;59286;59.274;17.974;2023-01-30T11:35:28;97443.41;;;4.09;65.66
71476;BME280;59286;59.274;17.974;2023-01-30T11:38:10;97484.91;;;4.36;65.57
71476;BME280;59286;59.274;17.974;2023-01-30T11:40:37;97479.22;;;4.31;65.55
71476;BME280;59286;59.274;17.974;2023-01-30T11:43:09;97458.50;;;4.19;64.92
71476;BME280;59286;59.274;17.974;2023-01-30T11:45:38;97475.88;;;4.18;65.25
71476;BME280;59286;59.274;17.974;2023-01-30T11:48:10;97468.69;;;4.12;65.84
71476;BME280;59286;59.274;17.974;2023-01-30T11:50:41;97469.34;;;3.97;66.31
71476;BME280;59286;59.274;17.974;2023-01-30T11:53:42;97497.63;;;4.02;66.12
71476;BME280;59286;59.274;17.974;2023-01-30T11:56:29;97484.16;;;3.84;66.54
71476;BME280;59286;59.274;17.974;2023-01-30T11:59:25;97505.19;;;3.94;66.78
71476;BME280;59286;59.274;17.974;2023-01-30T12:02:08;97474.13;;;3.82;66.40
71476;BME280;59286;59.274;17.974;2023-01-30T12:04:36;97513.59;;;4.04;67.06
71476;BME280;59286;59.274;17.974;2023-01-30T12:07:20;97503.66;;;4.06;66.53
71476;BME280;59286;59.274;17.974;2023-01-30T12:09:46;97478.44;;;3.90;66.77
71476;BME280;59286;59.274;17.974;2023-01-30T12:12:32;97508.22;;;3.97;67.13
71476;BME280;59286;59.274;17.974;2023-01-30T12:20:58;97510.72;;;3.81;71.25
71476;BME280;59286;59.274;17.974;2023-01-30T12:23:33;97523.69;;;3.69;72.08
71476;BME280;59286;59.274;17.974;2023-01-30T12:26:19;97511.59;;;3.61;72.34
71476;BME280;59286;59.274;17.974;2023-01-30T12:31:36;97479.97;;;3.43;72.25
71476;BME280;59286;59.274;17.974;2023-01-30T12:34:03;97491.28;;;3.51;72.43
71476;BME280;59286;59.274;17.974;2023-01-30T12:36:44;97482.34;;;3.48;71.88
71476;BME280;59286;59.274;17.974;2023-01-30T12:50:22;97520.75;;;3.58;72.04
71476;BME280;59286;59.274;17.974;2023-01-30T12:53:04;97515.91;;;3.57;72.15
71476;BME280;59286;59.274;17.974;2023-01-30T12:58:40;97508.44;;;3.55;72.73
71476;BME280;59286;59.274;17.974;2023-01-30T13:07:00;97518.94;;;3.71;71.85
71476;BME280;59286;59.274;17.974;2023-01-30T13:12:59;97515.47;;;3.67;70.95
71476;BME280;59286;59.274;17.974;2023-01-30T13:15:34;97526.34;;;3.84;70.96
71476;BME280;59286;59.274;17.974;2023-01-30T13:18:25;97516.66;;;3.81;69.90
71476;BME280;59286;59.274;17.974;2023-01-30T13:21:02;97537.88;;;3.99;69.41
71476;BME280;59286;59.274;17.974;2023-01-30T13:24:00;97547.72;;;4.06;68.10
71476;BME280;59286;59.274;17.974;2023-01-30T13:26:33;97543.41;;;4.10;67.88
71476;BME280;59286;59.274;17.974;2023-01-30T13:29:14;97550.94;;;4.15;67.57
71476;BME280;59286;59.274;17.974;2023-01-30T13:31:49;97550.94;;;4.15;66.04
71476;BME280;59286;59.274;17.974;2023-01-30T13:37:12;97545.56;;;4.08;66.29
71476;BME280;59286;59.274;17.974;2023-01-30T13:39:55;97566.81;;;4.13;65.69
71476;BME280;59286;59.274;17.974;2023-01-30T13:42:37;97555.25;;;4.11;65.11
71476;BME280;59286;59.274;17.974;2023-01-30T13:45:03;97560.53;;;4.14;66.07
71476;BME280;59286;59.274;17.974;2023-01-30T13:58:12;97592.31;;;3.87;68.11
71476;BME280;59286;59.274;17.974;2023-01-30T14:00:54;97616.94;;;3.93;68.96
71476;BME280;59286;59.274;17.974;2023-01-30T14:03:27;97593.28;;;3.70;69.90
71476;BME280;59286;59.274;17.974;2023-01-30T14:08:27;97638.63;;;3.76;70.33
71476;BME280;59286;59.274;17.974;2023-01-30T14:10:54;97654.06;;;3.85;71.13
71476;BME280;59286;59.274;17.974;2023-01-30T14:13:21;97644.75;;;3.72;72.01
71476;BME280;59286;59.274;17.974;2023-01-30T14:15:53;97674.66;;;3.93;72.67
71476;BME280;59286;59.274;17.974;2023-01-30T14:18:23;97680.50;;;3.90;74.57
71476;BME280;59286;59.274;17.974;2023-01-30T14:20:51;97675.50;;;3.73;76.17
71476;BME280;59286;59.274;17.974;2023-01-30T14:23:23;97695.16;;;3.74;76.70
71476;BME280;59286;59.274;17.974;2023-01-30T14:25:54;97704.44;;;3.75;77.30
71476;BME280;59286;59.274;17.974;2023-01-30T14:30:50;97696.88;;;3.70;77.35
71476;BME280;59286;59.274;17.974;2023-01-30T14:38:26;97718.47;;;3.74;76.92
71476;BME280;59286;59.274;17.974;2023-01-30T14:45:56;97690.75;;;3.54;77.72
71476;BME280;59286;59.274;17.974;2023-01-30T14:59:18;97712.06;;;3.60;76.34
71476;BME280;59286;59.274;17.974;2023-01-30T15:02:03;97752.59;;;3.76;76.99
71476;BME280;59286;59.274;17.974;2023-01-30T15:06:58;97761.50;;;3.67;76.66
71476;BME280;59286;59.274;17.974;2023-01-30T15:09:26;97791.13;;;3.78;76.76
71476;BME280;59286;59.274;17.974;2023-01-30T15:12:21;97795.97;;;3.79;76.64
71476;BME280;59286;59.274;17.974;2023-01-30T15:15:24;97786.97;;;3.65;76.68
71476;BME280;59286;59.274;17.974;2023-01-30T15:31:33;97846.19;;;3.46;76.97
71476;BME280;59286;59.274;17.974;2023-01-30T15:33:58;97853.63;;;3.47;76.49
71476;BME280;59286;59.274;17.974;2023-01-30T15:39:03;97864.25;;;3.54;75.66
71476;BME280;59286;59.274;17.974;2023-01-30T15:41:31;97846.69;;;3.39;75.18
71476;BME280;59286;59.274;17.974;2023-01-30T15:50:07;97876.47;;;3.74;74.15
71476;BME280;59286;59.274;17.974;2023-01-30T15:52:44;97863.88;;;3.64;73.93
71476;BME280;59286;59.274;17.974;2023-01-30T15:55:26;97915.63;;;3.93;74.64
71476;BME280;59286;59.274;17.974;2023-01-30T15:57:55;97931.91;;;4.03;73.53
71476;BME280;59286;59.274;17.974;2023-01-30T16:00:28;97916.59;;;4.10;72.85
71476;BME280;59286;59.274;17.974;2023-01-30T16:02:54;97922.47;;;4.19;72.35
71476;BME280;59286;59.274;17.974;2023-01-30T16:05:23;97943.00;;;4.24;72.73
71476;BME280;59286;59.274;17.974;2023-01-30T16:07:50;97932.16;;;4.10;71.89
71476;BME280;59286;59.274;17.974;2023-01-30T16:10:19;97934.41;;;4.11;72.24
71476;BME280;59286;59.274;17.974;2023-01-30T16:12:48;97933.41;;;4.04;72.23
71476;BME280;59286;59.274;17.974;2023-01-30T16:18:08;97943.50;;;3.97;71.87
71476;BME280;59286;59.274;17.974;2023-01-30T16:20:54;97955.59;;;3.92;70.75
71476;BME280;59286;59.274;17.974;2023-01-30T16:23:34;97968.03;;;4.20;71.22
71476;BME280;59286;59.274;17.974;2023-01-30T16:26:06;97972.34;;;4.16;70.80
71476;BME280;59286;59.274;17.974;2023-01-30T16:28:33;97984.88;;;4.14;70.55
71476;BME280;59286;59.274;17.974;2023-01-30T16:31:03;98017.38;;;4.32;70.58
71476;BME280;59286;59.274;17.974;2023-01-30T16:33:29;98003.91;;;4.18;70.25